EZY706N EGKK-EGPH
Flight info
| Callsign | EZY706N |
|---|---|
| Flight time | 0h 58m |
| Altitude | 34000 |
| Route | LAM L10 BPK UN601 RIBEL DCT INPIP |
| Aircraft | A320/M-SDE2E3FGHIJ1RWXYZ/LB1 |
Departure
| Time | 2026-04-17 08:14 |
|---|---|
| Airport | London Gatwick Airport (EGKK) |
Arrival
| Time | 2026-04-17 09:12 |
|---|---|
| Airport | Edinburgh Airport (EGPH) |
| Time | Latitude | Longitude | Altitude | Speed | Heading |
|---|---|---|---|---|---|
| 2026-04-17 07:44 | 51.15861 | -0.17938 | 204 ft | 0 kts | 78° |
| 2026-04-17 08:00 | 51.15857 | -0.17965 | 204 ft | 4 kts | 78° |
| 2026-04-17 08:00 | 51.15852 | -0.18007 | 204 ft | 4 kts | 78° |
| 2026-04-17 08:00 | 51.15846 | -0.18048 | 216 ft | 4 kts | 90° |
| 2026-04-17 08:00 | 51.15853 | -0.18080 | 206 ft | 4 kts | 157° |
| 2026-04-17 08:01 | 51.15872 | -0.18089 | 204 ft | 3 kts | 168° |
| 2026-04-17 08:01 | 51.15876 | -0.18090 | 204 ft | 0 kts | 168° |
| 2026-04-17 08:05 | 51.15872 | -0.18089 | 204 ft | 0 kts | 167° |
| 2026-04-17 08:05 | 51.15863 | -0.18085 | 204 ft | 3 kts | 167° |
| 2026-04-17 08:05 | 51.15845 | -0.18079 | 206 ft | 2 kts | 167° |
| 2026-04-17 08:05 | 51.15807 | -0.18066 | 213 ft | 9 kts | 167° |
| 2026-04-17 08:06 | 51.15738 | -0.18042 | 204 ft | 12 kts | 167° |
| 2026-04-17 08:06 | 51.15681 | -0.18099 | 204 ft | 11 kts | 255° |
| 2026-04-17 08:06 | 51.15658 | -0.18206 | 209 ft | 9 kts | 235° |
| 2026-04-17 08:06 | 51.15605 | -0.18229 | 213 ft | 7 kts | 163° |
| 2026-04-17 08:07 | 51.15563 | -0.18214 | 204 ft | 5 kts | 169° |
| 2026-04-17 08:07 | 51.15531 | -0.18204 | 212 ft | 4 kts | 169° |
| 2026-04-17 08:07 | 51.15496 | -0.18193 | 204 ft | 9 kts | 167° |
| 2026-04-17 08:07 | 51.15418 | -0.18156 | 207 ft | 13 kts | 168° |
| 2026-04-17 08:08 | 51.15319 | -0.18122 | 204 ft | 13 kts | 168° |
| 2026-04-17 08:08 | 51.15273 | -0.18106 | 209 ft | 0 kts | 167° |
| 2026-04-17 08:08 | 51.15247 | -0.18094 | 203 ft | 7 kts | 158° |
| 2026-04-17 08:09 | 51.15222 | -0.18033 | 213 ft | 7 kts | 96° |
| 2026-04-17 08:09 | 51.15230 | -0.17958 | 214 ft | 6 kts | 78° |
| 2026-04-17 08:09 | 51.15239 | -0.17888 | 208 ft | 10 kts | 78° |
| 2026-04-17 08:09 | 51.15258 | -0.17743 | 215 ft | 14 kts | 77° |
| 2026-04-17 08:10 | 51.15278 | -0.17596 | 209 ft | 13 kts | 77° |
| 2026-04-17 08:10 | 51.15295 | -0.17469 | 212 ft | 11 kts | 80° |
| 2026-04-17 08:10 | 51.15286 | -0.17368 | 212 ft | 9 kts | 135° |
| 2026-04-17 08:10 | 51.15244 | -0.17301 | 210 ft | 10 kts | 115° |
| 2026-04-17 08:11 | 51.15254 | -0.17165 | 211 ft | 14 kts | 78° |
| 2026-04-17 08:11 | 51.15273 | -0.17028 | 211 ft | 12 kts | 77° |
| 2026-04-17 08:11 | 51.15289 | -0.16911 | 210 ft | 10 kts | 80° |
| 2026-04-17 08:11 | 51.15278 | -0.16845 | 206 ft | 0 kts | 126° |
| 2026-04-17 08:12 | 51.15257 | -0.16822 | 209 ft | 9 kts | 154° |
| 2026-04-17 08:12 | 51.15177 | -0.16791 | 205 ft | 13 kts | 167° |
| 2026-04-17 08:13 | 51.15111 | -0.16881 | 210 ft | 15 kts | 257° |
| 2026-04-17 08:13 | 51.15089 | -0.17044 | 215 ft | 19 kts | 258° |
| 2026-04-17 08:13 | 51.15010 | -0.17612 | 212 ft | 87 kts | 258° |
| 2026-04-17 08:14 | 51.14591 | -0.20558 | 470 ft | 163 kts | 254° |
| 2026-04-17 08:14 | 51.14337 | -0.22313 | 1161 ft | 163 kts | 256° |
| 2026-04-17 08:14 | 51.14100 | -0.24113 | 1673 ft | 175 kts | 256° |
| 2026-04-17 08:14 | 51.13832 | -0.26125 | 1991 ft | 196 kts | 256° |
| 2026-04-17 08:15 | 51.13724 | -0.28396 | 2315 ft | 218 kts | 278° |
| 2026-04-17 08:15 | 51.14394 | -0.30608 | 2974 ft | 230 kts | 308° |
| 2026-04-17 08:15 | 51.15743 | -0.32024 | 3768 ft | 241 kts | 340° |
| 2026-04-17 08:15 | 51.17438 | -0.32029 | 4509 ft | 253 kts | 17° |
| 2026-04-17 08:16 | 51.18871 | -0.30419 | 5229 ft | 258 kts | 56° |
| 2026-04-17 08:16 | 51.19580 | -0.27784 | 5829 ft | 265 kts | 76° |
| 2026-04-17 08:16 | 51.20406 | -0.25034 | 6237 ft | 289 kts | 48° |
| 2026-04-17 08:16 | 51.22079 | -0.23366 | 7169 ft | 278 kts | 12° |
| 2026-04-17 08:17 | 51.23936 | -0.22930 | 8217 ft | 267 kts | 359° |
| 2026-04-17 08:17 | 51.25798 | -0.22872 | 9038 ft | 268 kts | 356° |
| 2026-04-17 08:17 | 51.27671 | -0.22831 | 9790 ft | 271 kts | 358° |
| 2026-04-17 08:17 | 51.29564 | -0.22677 | 10536 ft | 274 kts | 0° |
| 2026-04-17 08:18 | 51.31473 | -0.22389 | 11279 ft | 277 kts | 3° |
| 2026-04-17 08:18 | 51.33395 | -0.21995 | 12003 ft | 279 kts | 5° |
| 2026-04-17 08:18 | 51.35324 | -0.21526 | 12697 ft | 282 kts | 5° |
| 2026-04-17 08:18 | 51.37270 | -0.21016 | 13378 ft | 284 kts | 6° |
| 2026-04-17 08:19 | 51.39231 | -0.20481 | 14029 ft | 288 kts | 6° |
| 2026-04-17 08:19 | 51.41213 | -0.19929 | 14678 ft | 291 kts | 6° |
| 2026-04-17 08:19 | 51.43213 | -0.19371 | 15312 ft | 293 kts | 6° |
| 2026-04-17 08:19 | 51.45237 | -0.18814 | 15900 ft | 296 kts | 6° |
| 2026-04-17 08:20 | 51.47280 | -0.18253 | 16509 ft | 299 kts | 6° |
| 2026-04-17 08:20 | 51.49345 | -0.17687 | 17099 ft | 302 kts | 5° |
| 2026-04-17 08:20 | 51.51456 | -0.17114 | 17412 ft | 317 kts | 6° |
| 2026-04-17 08:20 | 51.53704 | -0.16510 | 17539 ft | 338 kts | 6° |
| 2026-04-17 08:21 | 51.56090 | -0.15874 | 17673 ft | 358 kts | 6° |
| 2026-04-17 08:21 | 51.58612 | -0.15194 | 17799 ft | 376 kts | 6° |
| 2026-04-17 08:21 | 51.61231 | -0.14477 | 18061 ft | 387 kts | 6° |
| 2026-04-17 08:21 | 51.63873 | -0.13745 | 18522 ft | 393 kts | 6° |
| 2026-04-17 08:22 | 51.66617 | -0.12986 | 19039 ft | 397 kts | 6° |
| 2026-04-17 08:22 | 51.69302 | -0.12244 | 19543 ft | 400 kts | 6° |
| 2026-04-17 08:22 | 51.72115 | -0.11803 | 20043 ft | 399 kts | 355° |
| 2026-04-17 08:22 | 51.74871 | -0.12215 | 20522 ft | 397 kts | 344° |
| 2026-04-17 08:23 | 51.77507 | -0.13430 | 20993 ft | 393 kts | 333° |
| 2026-04-17 08:23 | 51.79946 | -0.15391 | 21451 ft | 390 kts | 324° |
| 2026-04-17 08:23 | 51.82259 | -0.17613 | 21896 ft | 394 kts | 324° |
| 2026-04-17 08:23 | 51.84624 | -0.19876 | 22368 ft | 396 kts | 324° |
| 2026-04-17 08:24 | 51.87037 | -0.22175 | 22833 ft | 398 kts | 324° |
| 2026-04-17 08:24 | 51.89400 | -0.24423 | 23244 ft | 401 kts | 323° |
| 2026-04-17 08:24 | 51.91812 | -0.26720 | 23664 ft | 404 kts | 323° |
| 2026-04-17 08:24 | 51.94243 | -0.29040 | 24063 ft | 406 kts | 323° |
| 2026-04-17 08:25 | 51.96683 | -0.31376 | 24461 ft | 409 kts | 323° |
| 2026-04-17 08:25 | 51.99138 | -0.33731 | 24861 ft | 411 kts | 323° |
| 2026-04-17 08:25 | 52.01605 | -0.36104 | 25247 ft | 413 kts | 322° |
| 2026-04-17 08:25 | 52.04078 | -0.38490 | 25646 ft | 415 kts | 322° |
| 2026-04-17 08:26 | 52.06564 | -0.40890 | 26027 ft | 416 kts | 322° |
| 2026-04-17 08:26 | 52.09094 | -0.43330 | 26394 ft | 418 kts | 322° |
| 2026-04-17 08:26 | 52.11603 | -0.45747 | 26758 ft | 420 kts | 322° |
| 2026-04-17 08:26 | 52.14121 | -0.48179 | 27102 ft | 422 kts | 322° |
| 2026-04-17 08:27 | 52.16611 | -0.50588 | 27441 ft | 423 kts | 322° |
| 2026-04-17 08:27 | 52.19177 | -0.53076 | 27777 ft | 425 kts | 322° |
| 2026-04-17 08:27 | 52.21688 | -0.55520 | 28100 ft | 427 kts | 322° |
| 2026-04-17 08:27 | 52.24238 | -0.58008 | 28439 ft | 428 kts | 322° |
| 2026-04-17 08:28 | 52.26804 | -0.60512 | 28747 ft | 430 kts | 322° |
| 2026-04-17 08:28 | 52.29376 | -0.63022 | 29063 ft | 432 kts | 322° |
| 2026-04-17 08:28 | 52.31956 | -0.65548 | 29357 ft | 433 kts | 322° |
| 2026-04-17 08:28 | 52.34546 | -0.68083 | 29663 ft | 435 kts | 322° |
| 2026-04-17 08:29 | 52.37144 | -0.70621 | 29960 ft | 436 kts | 321° |
| 2026-04-17 08:29 | 52.39749 | -0.73168 | 30226 ft | 437 kts | 321° |
| 2026-04-17 08:29 | 52.42366 | -0.75737 | 30478 ft | 439 kts | 321° |
| 2026-04-17 08:29 | 52.44984 | -0.78320 | 30725 ft | 440 kts | 321° |
| 2026-04-17 08:30 | 52.47609 | -0.80912 | 30975 ft | 441 kts | 321° |
| 2026-04-17 08:30 | 52.50241 | -0.83509 | 31262 ft | 441 kts | 321° |
| 2026-04-17 08:30 | 52.51982 | -0.85225 | 31478 ft | 440 kts | 321° |
| 2026-04-17 08:30 | 52.54604 | -0.87808 | 31822 ft | 439 kts | 321° |
| 2026-04-17 08:31 | 52.57222 | -0.90394 | 32164 ft | 438 kts | 321° |
| 2026-04-17 08:31 | 52.59822 | -0.92977 | 32510 ft | 436 kts | 321° |
| 2026-04-17 08:31 | 52.62417 | -0.95561 | 32846 ft | 435 kts | 321° |
| 2026-04-17 08:31 | 52.64999 | -0.98133 | 33190 ft | 434 kts | 321° |
| 2026-04-17 08:32 | 52.67576 | -1.00698 | 33525 ft | 432 kts | 321° |
| 2026-04-17 08:32 | 52.70147 | -1.03258 | 33837 ft | 431 kts | 321° |
| 2026-04-17 08:32 | 52.72712 | -1.05813 | 34050 ft | 430 kts | 321° |
| 2026-04-17 08:33 | 52.77761 | -1.10841 | 34091 ft | 419 kts | 320° |
| 2026-04-17 08:33 | 52.80015 | -1.13100 | 34095 ft | 418 kts | 320° |
| 2026-04-17 08:34 | 52.84219 | -1.17339 | 34084 ft | 417 kts | 320° |
| 2026-04-17 08:34 | 52.89167 | -1.22345 | 34096 ft | 417 kts | 320° |
| 2026-04-17 08:35 | 52.94115 | -1.27346 | 34088 ft | 417 kts | 320° |
| 2026-04-17 08:35 | 52.99062 | -1.32344 | 34085 ft | 417 kts | 320° |
| 2026-04-17 08:36 | 53.04018 | -1.37369 | 34081 ft | 417 kts | 320° |
| 2026-04-17 08:36 | 53.08961 | -1.42402 | 34085 ft | 417 kts | 320° |
| 2026-04-17 08:37 | 53.13904 | -1.47443 | 34089 ft | 416 kts | 320° |
| 2026-04-17 08:37 | 53.18842 | -1.52507 | 34087 ft | 416 kts | 320° |
| 2026-04-17 08:38 | 53.23771 | -1.57569 | 34084 ft | 416 kts | 320° |
| 2026-04-17 08:38 | 53.28691 | -1.62641 | 34091 ft | 417 kts | 319° |
| 2026-04-17 08:39 | 53.33632 | -1.67751 | 34086 ft | 417 kts | 320° |
| 2026-04-17 08:39 | 53.38579 | -1.72862 | 34086 ft | 417 kts | 319° |
| 2026-04-17 08:40 | 53.43512 | -1.77971 | 34084 ft | 417 kts | 319° |
| 2026-04-17 08:40 | 53.48445 | -1.83112 | 34081 ft | 417 kts | 319° |
| 2026-04-17 08:41 | 53.53346 | -1.88211 | 34077 ft | 417 kts | 319° |
| 2026-04-17 08:41 | 53.58277 | -1.93361 | 34067 ft | 417 kts | 319° |
| 2026-04-17 08:42 | 53.63205 | -1.98519 | 34058 ft | 417 kts | 319° |
| 2026-04-17 08:42 | 53.68118 | -2.03700 | 34055 ft | 417 kts | 319° |
| 2026-04-17 08:43 | 53.73028 | -2.08906 | 34049 ft | 417 kts | 319° |
| 2026-04-17 08:43 | 53.78391 | -2.13086 | 34034 ft | 428 kts | 329° |
| 2026-04-17 08:44 | 53.83923 | -2.16847 | 34032 ft | 428 kts | 329° |
| 2026-04-17 08:44 | 53.89455 | -2.20614 | 34023 ft | 428 kts | 329° |
| 2026-04-17 08:45 | 53.94981 | -2.24384 | 34021 ft | 428 kts | 329° |
| 2026-04-17 08:45 | 54.00501 | -2.28191 | 34025 ft | 428 kts | 329° |
| 2026-04-17 08:46 | 54.06014 | -2.31999 | 34013 ft | 428 kts | 329° |
| 2026-04-17 08:46 | 54.11532 | -2.35803 | 34012 ft | 428 kts | 329° |
| 2026-04-17 08:47 | 54.17050 | -2.39631 | 34011 ft | 428 kts | 329° |
| 2026-04-17 08:47 | 54.22564 | -2.43469 | 33995 ft | 428 kts | 329° |
| 2026-04-17 08:48 | 54.28076 | -2.47317 | 33991 ft | 428 kts | 329° |
| 2026-04-17 08:48 | 54.33566 | -2.51153 | 33655 ft | 421 kts | 329° |
| 2026-04-17 08:48 | 54.36233 | -2.53010 | 33400 ft | 418 kts | 329° |
| 2026-04-17 08:49 | 54.38919 | -2.54890 | 33175 ft | 417 kts | 329° |
| 2026-04-17 08:49 | 54.41597 | -2.56775 | 32910 ft | 415 kts | 328° |
| 2026-04-17 08:49 | 54.44266 | -2.58658 | 32659 ft | 414 kts | 328° |
| 2026-04-17 08:49 | 54.46924 | -2.60538 | 32412 ft | 413 kts | 328° |
| 2026-04-17 08:50 | 54.49577 | -2.62416 | 32157 ft | 412 kts | 328° |
| 2026-04-17 08:50 | 54.52222 | -2.64289 | 31904 ft | 411 kts | 328° |
| 2026-04-17 08:50 | 54.54865 | -2.66162 | 31651 ft | 409 kts | 328° |
| 2026-04-17 08:50 | 54.57488 | -2.68017 | 31317 ft | 406 kts | 328° |
| 2026-04-17 08:51 | 54.60096 | -2.69863 | 30833 ft | 404 kts | 328° |
| 2026-04-17 08:51 | 54.62682 | -2.71697 | 30364 ft | 401 kts | 328° |
| 2026-04-17 08:51 | 54.65251 | -2.73526 | 29888 ft | 398 kts | 328° |
| 2026-04-17 08:51 | 54.67798 | -2.75345 | 29440 ft | 395 kts | 328° |
| 2026-04-17 08:52 | 54.70331 | -2.77157 | 28997 ft | 392 kts | 328° |
| 2026-04-17 08:52 | 54.72840 | -2.78950 | 28561 ft | 389 kts | 329° |
| 2026-04-17 08:52 | 54.75334 | -2.80735 | 28132 ft | 386 kts | 329° |
| 2026-04-17 08:52 | 54.77805 | -2.82507 | 27703 ft | 383 kts | 329° |
| 2026-04-17 08:53 | 54.80260 | -2.84268 | 27265 ft | 381 kts | 329° |
| 2026-04-17 08:53 | 54.82696 | -2.86020 | 26838 ft | 378 kts | 329° |
| 2026-04-17 08:53 | 54.85117 | -2.87765 | 26393 ft | 376 kts | 329° |
| 2026-04-17 08:53 | 54.87523 | -2.89501 | 25967 ft | 373 kts | 329° |
| 2026-04-17 08:54 | 54.89925 | -2.91240 | 25448 ft | 376 kts | 330° |
| 2026-04-17 08:54 | 54.92341 | -2.92995 | 24911 ft | 377 kts | 330° |
| 2026-04-17 08:54 | 54.94762 | -2.94753 | 24378 ft | 377 kts | 330° |
| 2026-04-17 08:54 | 54.97186 | -2.96509 | 23844 ft | 377 kts | 331° |
| 2026-04-17 08:55 | 54.99603 | -2.98261 | 23422 ft | 374 kts | 331° |
| 2026-04-17 08:55 | 55.01992 | -2.99992 | 23047 ft | 370 kts | 331° |
| 2026-04-17 08:55 | 55.04386 | -3.01728 | 22268 ft | 378 kts | 331° |
| 2026-04-17 08:55 | 55.06824 | -3.03506 | 21718 ft | 380 kts | 331° |
| 2026-04-17 08:56 | 55.09261 | -3.05285 | 21167 ft | 380 kts | 332° |
| 2026-04-17 08:56 | 55.11703 | -3.07070 | 20643 ft | 381 kts | 332° |
| 2026-04-17 08:56 | 55.14141 | -3.08854 | 20250 ft | 377 kts | 332° |
| 2026-04-17 08:56 | 55.16570 | -3.10635 | 19709 ft | 378 kts | 332° |
| 2026-04-17 08:57 | 55.18981 | -3.12396 | 19354 ft | 374 kts | 332° |
| 2026-04-17 08:57 | 55.21380 | -3.14148 | 18929 ft | 372 kts | 332° |
| 2026-04-17 08:57 | 55.23758 | -3.15892 | 18501 ft | 370 kts | 332° |
| 2026-04-17 08:57 | 55.26172 | -3.17435 | 18094 ft | 372 kts | 343° |
| 2026-04-17 08:58 | 55.28765 | -3.17784 | 17678 ft | 377 kts | 359° |
| 2026-04-17 08:58 | 55.31344 | -3.17576 | 17253 ft | 375 kts | 359° |
| 2026-04-17 08:58 | 55.33942 | -3.17349 | 16848 ft | 373 kts | 359° |
| 2026-04-17 08:58 | 55.36528 | -3.17109 | 16439 ft | 371 kts | 360° |
| 2026-04-17 08:59 | 55.39094 | -3.16864 | 16054 ft | 368 kts | 360° |
| 2026-04-17 08:59 | 55.41648 | -3.16612 | 15629 ft | 367 kts | 360° |
| 2026-04-17 08:59 | 55.44217 | -3.16362 | 15034 ft | 371 kts | 360° |
| 2026-04-17 08:59 | 55.46794 | -3.16124 | 14572 ft | 370 kts | 360° |
| 2026-04-17 09:00 | 55.49360 | -3.15894 | 14163 ft | 368 kts | 360° |
| 2026-04-17 09:00 | 55.51913 | -3.15667 | 13752 ft | 366 kts | 360° |
| 2026-04-17 09:00 | 55.54447 | -3.15440 | 13342 ft | 364 kts | 360° |
| 2026-04-17 09:00 | 55.56969 | -3.15213 | 12910 ft | 362 kts | 0° |
| 2026-04-17 09:01 | 55.59457 | -3.14987 | 12703 ft | 353 kts | 0° |
| 2026-04-17 09:01 | 55.61865 | -3.14499 | 12456 ft | 348 kts | 8° |
| 2026-04-17 09:01 | 55.64238 | -3.13661 | 12056 ft | 347 kts | 9° |
| 2026-04-17 09:01 | 55.66596 | -3.12796 | 11657 ft | 346 kts | 9° |
| 2026-04-17 09:02 | 55.68954 | -3.11928 | 11254 ft | 345 kts | 10° |
| 2026-04-17 09:02 | 55.71301 | -3.11075 | 10853 ft | 344 kts | 9° |
| 2026-04-17 09:02 | 55.73640 | -3.10224 | 10454 ft | 343 kts | 9° |
| 2026-04-17 09:02 | 55.75972 | -3.09375 | 10052 ft | 341 kts | 10° |
| 2026-04-17 09:03 | 55.78293 | -3.08532 | 9646 ft | 339 kts | 9° |
| 2026-04-17 09:03 | 55.80594 | -3.07650 | 9245 ft | 338 kts | 14° |
| 2026-04-17 09:03 | 55.82814 | -3.06307 | 8838 ft | 336 kts | 19° |
| 2026-04-17 09:03 | 55.85001 | -3.04858 | 8412 ft | 336 kts | 20° |
| 2026-04-17 09:04 | 55.87184 | -3.03399 | 7970 ft | 335 kts | 20° |
| 2026-04-17 09:04 | 55.89356 | -3.01943 | 7500 ft | 329 kts | 20° |
| 2026-04-17 09:04 | 55.91457 | -3.00531 | 7048 ft | 317 kts | 20° |
| 2026-04-17 09:04 | 55.93483 | -2.99175 | 6600 ft | 306 kts | 20° |
| 2026-04-17 09:05 | 55.95483 | -2.97842 | 6153 ft | 307 kts | 20° |
| 2026-04-17 09:05 | 55.97469 | -2.96525 | 5691 ft | 301 kts | 20° |
| 2026-04-17 09:05 | 55.99405 | -2.95259 | 5242 ft | 292 kts | 17° |
| 2026-04-17 09:05 | 56.01354 | -2.94840 | 4795 ft | 277 kts | 348° |
| 2026-04-17 09:06 | 56.03145 | -2.95819 | 4342 ft | 265 kts | 332° |
| 2026-04-17 09:06 | 56.04691 | -2.97423 | 3897 ft | 250 kts | 310° |
| 2026-04-17 09:06 | 56.05672 | -2.99845 | 3451 ft | 234 kts | 285° |
| 2026-04-17 09:06 | 56.05993 | -3.02608 | 3056 ft | 223 kts | 261° |
| 2026-04-17 09:07 | 56.05712 | -3.05189 | 3005 ft | 201 kts | 241° |
| 2026-04-17 09:07 | 56.05097 | -3.07240 | 3034 ft | 176 kts | 232° |
| 2026-04-17 09:07 | 56.04514 | -3.08989 | 3035 ft | 156 kts | 231° |
| 2026-04-17 09:07 | 56.03964 | -3.10626 | 3027 ft | 151 kts | 231° |
| 2026-04-17 09:08 | 56.03426 | -3.12228 | 2992 ft | 150 kts | 231° |
| 2026-04-17 09:08 | 56.02889 | -3.13823 | 2870 ft | 149 kts | 231° |
| 2026-04-17 09:08 | 56.02355 | -3.15413 | 2686 ft | 149 kts | 232° |
| 2026-04-17 09:08 | 56.01821 | -3.17003 | 2503 ft | 150 kts | 233° |
| 2026-04-17 09:09 | 56.01284 | -3.18606 | 2307 ft | 151 kts | 233° |
| 2026-04-17 09:09 | 56.00741 | -3.20222 | 2109 ft | 152 kts | 234° |
| 2026-04-17 09:09 | 56.00195 | -3.21846 | 1906 ft | 151 kts | 234° |
| 2026-04-17 09:09 | 55.99669 | -3.23410 | 1698 ft | 145 kts | 234° |
| 2026-04-17 09:10 | 55.98647 | -3.26444 | 1326 ft | 143 kts | 236° |
| 2026-04-17 09:10 | 55.98131 | -3.27971 | 1140 ft | 144 kts | 236° |
| 2026-04-17 09:10 | 55.97614 | -3.29505 | 945 ft | 144 kts | 236° |
| 2026-04-17 09:11 | 55.97096 | -3.31041 | 750 ft | 144 kts | 237° |
| 2026-04-17 09:11 | 55.96580 | -3.32567 | 570 ft | 143 kts | 237° |
| 2026-04-17 09:11 | 55.96063 | -3.34096 | 380 ft | 144 kts | 236° |
| 2026-04-17 09:11 | 55.95547 | -3.35622 | 184 ft | 144 kts | 237° |
| 2026-04-17 09:12 | 55.95065 | -3.37044 | 111 ft | 106 kts | 240° |
| 2026-04-17 09:12 | 55.94840 | -3.37722 | 114 ft | 31 kts | 239° |
| 2026-04-17 09:12 | 55.94730 | -3.38026 | 115 ft | 25 kts | 218° |
| 2026-04-17 09:12 | 55.94613 | -3.37963 | 114 ft | 15 kts | 142° |
| 2026-04-17 09:13 | 55.94622 | -3.37799 | 115 ft | 15 kts | 61° |
| 2026-04-17 09:13 | 55.94668 | -3.37655 | 113 ft | 13 kts | 59° |
| 2026-04-17 09:13 | 55.94710 | -3.37529 | 114 ft | 11 kts | 59° |
| 2026-04-17 09:13 | 55.94745 | -3.37427 | 116 ft | 7 kts | 57° |
| 2026-04-17 09:14 | 55.94770 | -3.37357 | 113 ft | 6 kts | 58° |
| 2026-04-17 09:14 | 55.94791 | -3.37298 | 114 ft | 5 kts | 59° |
| 2026-04-17 09:14 | 55.94807 | -3.37248 | 114 ft | 4 kts | 59° |
| 2026-04-17 09:14 | 55.94825 | -3.37194 | 116 ft | 8 kts | 59° |
| 2026-04-17 09:15 | 55.94863 | -3.37081 | 115 ft | 11 kts | 59° |
| 2026-04-17 09:15 | 55.94905 | -3.36958 | 115 ft | 12 kts | 59° |
| 2026-04-17 09:15 | 55.94918 | -3.36834 | 115 ft | 10 kts | 120° |
| 2026-04-17 09:15 | 55.94864 | -3.36781 | 116 ft | 8 kts | 167° |
| 2026-04-17 09:16 | 55.94816 | -3.36777 | 116 ft | 6 kts | 180° |
| 2026-04-17 09:16 | 55.94801 | -3.36745 | 116 ft | 4 kts | 93° |
| 2026-04-17 09:16 | 55.94800 | -3.36696 | 115 ft | 5 kts | 90° |
| 2026-04-17 09:16 | 55.94801 | -3.36644 | 114 ft | 3 kts | 89° |
| 2026-04-17 09:17 | 55.94801 | -3.36622 | 115 ft | 0 kts | 89° |
| 2026-04-17 09:20 | 55.94801 | -3.36638 | 115 ft | 0 kts | 89° |